Terminal Aerodrome Forecast
Issued by NWS Omaha/Valley, NE

Home | Current Version | Previous Version | Graphics & Text | Print | Product List | Glossary On
Versions: 1 2 3 4 5 6 7 8 9 10 11 12 13 14 15 16 17 18 19 20 21 22 23 24 25 26 27 28 29 30 31 32 33 34 35 36 37 38 39 40 41 42 43 44 45 46 47 48 49 50
000
FTUS43 KOAX 291109 AAB
TAFOFK
TAF AMD
KOFK 291109Z 2911/3006 06008KT P6SM -RA OVC009
     FM291700 06012G21KT 4SM -RA BR OVC007
     FM292100 05012G23KT 4SM -RA BR OVC012
     FM300300 03014KT 4SM -RA BR OVC005=

USA.gov is the U.S. government's official web portal to all federal, state and local government web resources and services.